sensor_id;sensor_type;location;lat;lon;timestamp;temperature;humidity
16968;DHT22;64862;54.398;10.126;2023-07-20T00:02:52;15.80;76.00
16968;DHT22;64862;54.398;10.126;2023-07-20T00:12:55;16.00;75.70
16968;DHT22;64862;54.398;10.126;2023-07-20T00:22:58;16.00;75.30
16968;DHT22;64862;54.398;10.126;2023-07-20T00:33:01;15.70;75.40
16968;DHT22;64862;54.398;10.126;2023-07-20T00:43:03;15.60;76.10
16968;DHT22;64862;54.398;10.126;2023-07-20T00:53:07;15.40;76.00
16968;DHT22;64862;54.398;10.126;2023-07-20T01:03:10;15.40;76.20
16968;DHT22;64862;54.398;10.126;2023-07-20T01:13:14;15.40;75.60
16968;DHT22;64862;54.398;10.126;2023-07-20T01:23:33;15.30;75.60
16968;DHT22;64862;54.398;10.126;2023-07-20T01:33:41;15.30;75.50
16968;DHT22;64862;54.398;10.126;2023-07-20T01:43:46;15.20;76.00
16968;DHT22;64862;54.398;10.126;2023-07-20T01:53:50;15.20;74.90
16968;DHT22;64862;54.398;10.126;2023-07-20T02:03:52;15.20;74.60
16968;DHT22;64862;54.398;10.126;2023-07-20T02:13:56;15.10;74.70
16968;DHT22;64862;54.398;10.126;2023-07-20T02:23:58;14.90;75.40
16968;DHT22;64862;54.398;10.126;2023-07-20T02:34:02;15.00;75.60
16968;DHT22;64862;54.398;10.126;2023-07-20T02:44:04;15.10;75.40
16968;DHT22;64862;54.398;10.126;2023-07-20T02:54:07;14.90;75.30
16968;DHT22;64862;54.398;10.126;2023-07-20T03:04:10;14.90;75.80
16968;DHT22;64862;54.398;10.126;2023-07-20T03:14:13;14.80;76.20
16968;DHT22;64862;54.398;10.126;2023-07-20T03:24:16;14.70;76.60
16968;DHT22;64862;54.398;10.126;2023-07-20T03:34:20;14.70;76.30
16968;DHT22;64862;54.398;10.126;2023-07-20T03:44:22;14.70;76.20
16968;DHT22;64862;54.398;10.126;2023-07-20T03:54:26;15.00;75.90
16968;DHT22;64862;54.398;10.126;2023-07-20T04:04:28;14.70;76.30
16968;DHT22;64862;54.398;10.126;2023-07-20T04:14:31;14.60;76.80
16968;DHT22;64862;54.398;10.126;2023-07-20T04:24:34;14.50;77.30
16968;DHT22;64862;54.398;10.126;2023-07-20T04:34:37;14.70;77.10
16968;DHT22;64862;54.398;10.126;2023-07-20T04:44:40;14.60;77.30
16968;DHT22;64862;54.398;10.126;2023-07-20T04:54:45;14.90;77.10
16968;DHT22;64862;54.398;10.126;2023-07-20T05:04:48;15.00;76.80
16968;DHT22;64862;54.398;10.126;2023-07-20T05:14:51;15.20;76.60
16968;DHT22;64862;54.398;10.126;2023-07-20T05:24:54;15.20;76.90
16968;DHT22;64862;54.398;10.126;2023-07-20T05:34:57;15.30;76.70
16968;DHT22;64862;54.398;10.126;2023-07-20T05:44:59;15.40;75.80
16968;DHT22;64862;54.398;10.126;2023-07-20T05:55:03;15.60;75.00
16968;DHT22;64862;54.398;10.126;2023-07-20T06:05:07;15.80;74.70
16968;DHT22;64862;54.398;10.126;2023-07-20T06:15:27;15.90;72.50
16968;DHT22;64862;54.398;10.126;2023-07-20T06:25:32;16.10;73.20
16968;DHT22;64862;54.398;10.126;2023-07-20T06:35:36;16.50;70.10
16968;DHT22;64862;54.398;10.126;2023-07-20T06:45:38;16.30;70.40
16968;DHT22;64862;54.398;10.126;2023-07-20T06:55:43;16.30;70.70
16968;DHT22;64862;54.398;10.126;2023-07-20T07:05:45;16.30;69.50
16968;DHT22;64862;54.398;10.126;2023-07-20T07:15:49;16.40;69.40
16968;DHT22;64862;54.398;10.126;2023-07-20T07:25:51;16.50;68.00
16968;DHT22;64862;54.398;10.126;2023-07-20T07:35:55;16.70;67.80
16968;DHT22;64862;54.398;10.126;2023-07-20T07:45:56;17.10;64.60
16968;DHT22;64862;54.398;10.126;2023-07-20T07:56:00;17.00;67.90
16968;DHT22;64862;54.398;10.126;2023-07-20T08:06:03;16.50;75.10
16968;DHT22;64862;54.398;10.126;2023-07-20T08:16:07;16.00;78.50
16968;DHT22;64862;54.398;10.126;2023-07-20T08:26:10;16.10;79.50
16968;DHT22;64862;54.398;10.126;2023-07-20T08:36:13;16.40;78.10
16968;DHT22;64862;54.398;10.126;2023-07-20T08:46:16;16.80;74.10
16968;DHT22;64862;54.398;10.126;2023-07-20T08:56:20;16.70;75.10
16968;DHT22;64862;54.398;10.126;2023-07-20T09:06:23;16.70;75.50
16968;DHT22;64862;54.398;10.126;2023-07-20T09:16:26;16.80;75.00
16968;DHT22;64862;54.398;10.126;2023-07-20T09:26:30;17.20;71.40
16968;DHT22;64862;54.398;10.126;2023-07-20T09:36:35;16.80;74.00
16968;DHT22;64862;54.398;10.126;2023-07-20T09:46:42;17.10;70.50
16968;DHT22;64862;54.398;10.126;2023-07-20T09:56:46;17.20;70.40
16968;DHT22;64862;54.398;10.126;2023-07-20T10:06:49;16.60;73.90
16968;DHT22;64862;54.398;10.126;2023-07-20T10:16:58;16.40;75.70
16968;DHT22;64862;54.398;10.126;2023-07-20T10:27:02;16.50;75.90
16968;DHT22;64862;54.398;10.126;2023-07-20T10:37:07;16.90;72.50
16968;DHT22;64862;54.398;10.126;2023-07-20T10:47:10;17.30;69.60
16968;DHT22;64862;54.398;10.126;2023-07-20T10:57:25;17.60;65.50
16968;DHT22;64862;54.398;10.126;2023-07-20T11:07:37;17.70;64.60
16968;DHT22;64862;54.398;10.126;2023-07-20T11:17:41;17.90;60.70
16968;DHT22;64862;54.398;10.126;2023-07-20T11:27:45;18.00;57.30
16968;DHT22;64862;54.398;10.126;2023-07-20T11:37:50;18.20;57.10
16968;DHT22;64862;54.398;10.126;2023-07-20T11:47:52;18.30;56.00
16968;DHT22;64862;54.398;10.126;2023-07-20T11:58:05;18.60;56.30
16968;DHT22;64862;54.398;10.126;2023-07-20T12:08:08;18.60;56.70
16968;DHT22;64862;54.398;10.126;2023-07-20T12:18:11;18.70;56.70
16968;DHT22;64862;54.398;10.126;2023-07-20T12:28:15;19.00;56.70
16968;DHT22;64862;54.398;10.126;2023-07-20T12:38:18;19.10;54.90
16968;DHT22;64862;54.398;10.126;2023-07-20T12:48:20;18.80;55.20
16968;DHT22;64862;54.398;10.126;2023-07-20T12:58:25;18.30;64.20
16968;DHT22;64862;54.398;10.126;2023-07-20T13:08:27;18.00;60.70
16968;DHT22;64862;54.398;10.126;2023-07-20T13:18:30;18.40;57.20
16968;DHT22;64862;54.398;10.126;2023-07-20T13:28:32;18.30;57.30
16968;DHT22;64862;54.398;10.126;2023-07-20T13:38:36;18.50;58.90
16968;DHT22;64862;54.398;10.126;2023-07-20T13:48:38;18.60;57.40
16968;DHT22;64862;54.398;10.126;2023-07-20T13:58:42;18.50;60.00
16968;DHT22;64862;54.398;10.126;2023-07-20T14:08:45;18.40;58.60
16968;DHT22;64862;54.398;10.126;2023-07-20T14:18:50;18.50;56.80
16968;DHT22;64862;54.398;10.126;2023-07-20T14:28:52;18.80;56.50
16968;DHT22;64862;54.398;10.126;2023-07-20T14:38:56;19.10;56.90
16968;DHT22;64862;54.398;10.126;2023-07-20T14:48:58;19.30;55.10
16968;DHT22;64862;54.398;10.126;2023-07-20T14:59:02;19.10;58.20
16968;DHT22;64862;54.398;10.126;2023-07-20T15:09:04;19.10;55.50
16968;DHT22;64862;54.398;10.126;2023-07-20T15:19:09;18.80;55.40
16968;DHT22;64862;54.398;10.126;2023-07-20T15:29:14;18.50;56.20
16968;DHT22;64862;54.398;10.126;2023-07-20T15:39:17;18.40;57.00
16968;DHT22;64862;54.398;10.126;2023-07-20T15:49:20;18.40;59.30
16968;DHT22;64862;54.398;10.126;2023-07-20T15:59:24;18.70;58.30
16968;DHT22;64862;54.398;10.126;2023-07-20T16:09:26;18.50;58.40
16968;DHT22;64862;54.398;10.126;2023-07-20T16:19:30;18.50;59.90
16968;DHT22;64862;54.398;10.126;2023-07-20T16:29:33;18.40;56.00
16968;DHT22;64862;54.398;10.126;2023-07-20T16:39:36;18.40;56.90
16968;DHT22;64862;54.398;10.126;2023-07-20T16:49:41;18.50;56.40
16968;DHT22;64862;54.398;10.126;2023-07-20T16:59:50;18.60;56.40
16968;DHT22;64862;54.398;10.126;2023-07-20T17:09:56;18.60;57.70
16968;DHT22;64862;54.398;10.126;2023-07-20T17:20:05;19.40;55.80
16968;DHT22;64862;54.398;10.126;2023-07-20T17:30:08;20.40;53.30
16968;DHT22;64862;54.398;10.126;2023-07-20T17:40:13;20.70;51.80
16968;DHT22;64862;54.398;10.126;2023-07-20T17:50:16;20.90;50.40
16968;DHT22;64862;54.398;10.126;2023-07-20T18:00:20;20.50;51.90
16968;DHT22;64862;54.398;10.126;2023-07-20T18:10:25;20.10;53.00
16968;DHT22;64862;54.398;10.126;2023-07-20T18:20:28;19.10;56.50
16968;DHT22;64862;54.398;10.126;2023-07-20T18:30:33;18.40;57.80
16968;DHT22;64862;54.398;10.126;2023-07-20T18:40:37;18.00;59.60
16968;DHT22;64862;54.398;10.126;2023-07-20T18:50:39;17.80;60.90
16968;DHT22;64862;54.398;10.126;2023-07-20T19:00:43;17.60;61.80
16968;DHT22;64862;54.398;10.126;2023-07-20T19:10:46;17.40;62.70
16968;DHT22;64862;54.398;10.126;2023-07-20T19:20:50;17.30;63.10
16968;DHT22;64862;54.398;10.126;2023-07-20T19:30:52;17.20;63.80
16968;DHT22;64862;54.398;10.126;2023-07-20T19:40:56;17.00;64.00
16968;DHT22;64862;54.398;10.126;2023-07-20T19:51:01;17.00;63.90
16968;DHT22;64862;54.398;10.126;2023-07-20T20:01:06;16.90;63.90
16968;DHT22;64862;54.398;10.126;2023-07-20T20:11:08;16.80;64.30
16968;DHT22;64862;54.398;10.126;2023-07-20T20:21:11;16.70;64.50
16968;DHT22;64862;54.398;10.126;2023-07-20T20:31:13;16.70;65.00
16968;DHT22;64862;54.398;10.126;2023-07-20T20:41:17;16.60;65.30
16968;DHT22;64862;54.398;10.126;2023-07-20T20:51:20;16.40;66.10
16968;DHT22;64862;54.398;10.126;2023-07-20T21:01:24;16.20;66.90
16968;DHT22;64862;54.398;10.126;2023-07-20T21:11:26;16.20;67.00
16968;DHT22;64862;54.398;10.126;2023-07-20T21:21:30;16.00;67.50
16968;DHT22;64862;54.398;10.126;2023-07-20T21:31:32;15.80;68.50
16968;DHT22;64862;54.398;10.126;2023-07-20T21:41:35;15.70;69.10
16968;DHT22;64862;54.398;10.126;2023-07-20T21:51:38;15.80;69.30
16968;DHT22;64862;54.398;10.126;2023-07-20T22:01:42;15.80;69.20
16968;DHT22;64862;54.398;10.126;2023-07-20T22:11:44;15.80;69.20
16968;DHT22;64862;54.398;10.126;2023-07-20T22:21:47;15.70;69.20
16968;DHT22;64862;54.398;10.126;2023-07-20T22:31:50;15.60;69.20
16968;DHT22;64862;54.398;10.126;2023-07-20T22:41:54;15.50;69.90
16968;DHT22;64862;54.398;10.126;2023-07-20T22:51:57;15.40;70.20
16968;DHT22;64862;54.398;10.126;2023-07-20T23:02:01;15.30;70.40
16968;DHT22;64862;54.398;10.126;2023-07-20T23:12:04;15.30;70.90
16968;DHT22;64862;54.398;10.126;2023-07-20T23:22:07;15.30;70.90
16968;DHT22;64862;54.398;10.126;2023-07-20T23:32:10;15.10;71.70
16968;DHT22;64862;54.398;10.126;2023-07-20T23:42:13;15.00;71.70
16968;DHT22;64862;54.398;10.126;2023-07-20T23:52:17;15.00;72.80
